Montauk — 9HHE8 — position and weather

sailwx.info

Track history (hours):
 
Tides and Currents Weather Stations Pressure Air Temp Water Temp Dewpoint Dewpoint Depression Visibility Wind Speed Wind Dir Waves Ship Positions

Montauk

Last reported at 2017-Jan-08 20:33 UTC. Time now 2017-Jan-17 21:20 UTC.
Position S 04°45' E 011°49'.
Warning: this ship's position is 9 days out of date.

Length 106 m; draft 5.6 m.

Type: Tanker. MMSI: 215978000.

Date/timePositionNaut miles runAvg speedWind from/ knotsBaromVisibWave heightAir tempDewpointWater temp
2017-Jan-08 20:33S 04°45' E 011°49'  
2017-Jan-04 23:31S 04°57' E 011°27'8 8.7
2017-Jan-04 22:33S 04°59' E 011°19'9 8.5
2017-Jan-04 21:33S 05°01' E 011°11'17 8.3
2017-Jan-04 19:29S 05°05' E 010°54'10 0.8
2017-Jan-04 07:14S 05°15' E 010°56'7 9.8
2017-Jan-04 06:32S 05°22' E 010°58'10 9.7
2017-Jan-04 05:33S 05°31' E 011°01'  
2016-Dec-31 06:07S 04°59' E 011°03'6 9.6
2016-Dec-31 05:32S 04°59' E 011°08'9 9.5
2016-Dec-31 04:33S 05°01' E 011°18'2 1.9
2016-Dec-31 03:33S 05°01' E 011°20'1 0.7
2016-Dec-31 02:33S 05°00' E 011°20'0 0.5
2016-Dec-31 01:33S 05°00' E 011°21'0 0.3
2016-Dec-31 00:33S 05°00' E 011°21'5 5.2
2016-Dec-30 23:33S 04°57' E 011°25'8 8.4
2016-Dec-30 22:33S 04°53' E 011°33'8 8.2
2016-Dec-30 21:32S 04°49' E 011°40'9 1.0
2016-Dec-30 12:32S 04°55' E 011°33'9 8.3
2016-Dec-30 11:30S 04°57' E 011°25'8 8.3
2016-Dec-30 10:33S 04°60' E 011°17'1 1.0
2016-Dec-30 09:32S 05°00' E 011°16'1 0.6
2016-Dec-30 08:33S 05°00' E 011°17'1 0.6
2016-Dec-30 07:33S 05°00' E 011°17'1 0.7
2016-Dec-30 06:32S 05°01' E 011°18'1 0.8
2016-Dec-30 05:33S 05°00' E 011°19'1 0.8
2016-Dec-30 04:33S 05°00' E 011°19'0 0.4
2016-Dec-30 03:33S 05°00' E 011°20'0 0.3
2016-Dec-30 02:33S 04°60' E 011°20'8 7.0
2016-Dec-30 01:28S 04°56' E 011°27'  
Track history (hours):
 
Tides and Currents Weather Stations Pressure Air Temp Water Temp Dewpoint Dewpoint Depression Visibility Wind Speed Wind Dir Waves Ship Positions

Montauk

Last reported at 2017-Jan-08 20:33 UTC. Time now 2017-Jan-17 21:20 UTC.
Position S 04°45' E 011°49'.
Warning: this ship's position is 9 days out of date.

Length 106 m; draft 5.6 m.

Type: Tanker. MMSI: 215978000.

Date/timePositionNaut miles runAvg speedWind from/ knotsBaromVisibWave heightAir tempDewpointWater temp
2017-Jan-08 20:33S 04°45' E 011°49'  
2017-Jan-04 23:31S 04°57' E 011°27'8 8.7
2017-Jan-04 22:33S 04°59' E 011°19'9 8.5
2017-Jan-04 21:33S 05°01' E 011°11'17 8.3
2017-Jan-04 19:29S 05°05' E 010°54'10 0.8
2017-Jan-04 07:14S 05°15' E 010°56'7 9.8
2017-Jan-04 06:32S 05°22' E 010°58'10 9.7
2017-Jan-04 05:33S 05°31' E 011°01'  
2016-Dec-31 06:07S 04°59' E 011°03'6 9.6
2016-Dec-31 05:32S 04°59' E 011°08'9 9.5
2016-Dec-31 04:33S 05°01' E 011°18'2 1.9
2016-Dec-31 03:33S 05°01' E 011°20'1 0.7
2016-Dec-31 02:33S 05°00' E 011°20'0 0.5
2016-Dec-31 01:33S 05°00' E 011°21'0 0.3
2016-Dec-31 00:33S 05°00' E 011°21'5 5.2
2016-Dec-30 23:33S 04°57' E 011°25'8 8.4
2016-Dec-30 22:33S 04°53' E 011°33'8 8.2
2016-Dec-30 21:32S 04°49' E 011°40'9 1.0
2016-Dec-30 12:32S 04°55' E 011°33'9 8.3
2016-Dec-30 11:30S 04°57' E 011°25'8 8.3
2016-Dec-30 10:33S 04°60' E 011°17'1 1.0
2016-Dec-30 09:32S 05°00' E 011°16'1 0.6
2016-Dec-30 08:33S 05°00' E 011°17'1 0.6
2016-Dec-30 07:33S 05°00' E 011°17'1 0.7
2016-Dec-30 06:32S 05°01' E 011°18'1 0.8
2016-Dec-30 05:33S 05°00' E 011°19'1 0.8
2016-Dec-30 04:33S 05°00' E 011°19'0 0.4
2016-Dec-30 03:33S 05°00' E 011°20'0 0.3
2016-Dec-30 02:33S 04°60' E 011°20'8 7.0
2016-Dec-30 01:28S 04°56' E 011°27'  

Dump ship's entire track history